Time;durP1;ratioP1;P1;durP2;ratioP2;P2;SDS_P1;SDS_P2;PMS_P1;PMS_P2;Temp;Humidity;BMP_temperature;BMP_pressure;BME280_temperature;BME280_humidity;BME280_pressure;Samples;Min_cycle;Max_cycle;Signal;HPM_P1;HPM_P2
2023/11/15 00:00:06;;;;;;;3.20;2.58;;;;;;;16.82;100.00;99102.66;5092572;28;20028;-46
2023/11/15 00:02:34;;;;;;;6.10;3.08;;;;;;;16.40;100.00;99105.38;5093539;28;20032;-46
2023/11/15 00:04:59;;;;;;;5.63;5.13;;;;;;;16.44;100.00;99103.03;5092186;28;20038;-46
2023/11/15 00:07:25;;;;;;;423.27;378.13;;;;;;;16.62;100.00;99107.44;5092014;28;20472;-46
2023/11/15 00:09:51;;;;;;;26.10;20.80;;;;;;;16.70;100.00;99107.09;5092022;28;20027;-45
2023/11/15 00:12:17;;;;;;;5.35;3.20;;;;;;;16.48;100.00;99102.38;5091867;28;20401;-46
2023/11/15 00:14:43;;;;;;;9.73;5.13;;;;;;;16.11;100.00;99099.88;5093288;28;20021;-46
2023/11/15 00:17:09;;;;;;;8.38;4.88;;;;;;;15.93;100.00;99102.56;5093166;28;20035;-45
2023/11/15 00:19:35;;;;;;;37.97;34.70;;;;;;;15.57;100.00;99096.28;5091882;28;20020;-46
2023/11/15 00:22:01;;;;;;;28.52;25.90;;;;;;;15.47;100.00;99103.94;5093114;28;20036;-46
2023/11/15 00:24:27;;;;;;;8.48;6.22;;;;;;;15.76;100.00;99103.22;5093135;28;20077;-46
2023/11/15 00:26:52;;;;;;;6.30;4.25;;;;;;;15.88;100.00;99110.41;5092832;28;20090;-46
2023/11/15 00:29:18;;;;;;;6.00;2.20;;;;;;;15.47;100.00;99114.53;5091717;28;20401;-46
2023/11/15 00:31:44;;;;;;;8.35;4.10;;;;;;;15.00;100.00;99122.16;5092876;28;20056;-46
2023/11/15 00:34:10;;;;;;;17.05;13.70;;;;;;;14.62;100.00;99128.38;5091581;28;20040;-46
2023/11/15 00:36:43;;;;;;;5.57;3.13;;;;;;;14.22;100.00;99118.88;5092869;28;20490;-46
2023/11/15 00:39:10;;;;;;;5.00;1.88;;;;;;;14.01;100.00;99130.56;5092898;28;20081;-46
2023/11/15 00:41:36;;;;;;;5.30;2.08;;;;;;;14.22;100.00;99126.78;5092756;28;20106;-46
2023/11/15 00:44:07;;;;;;;6.20;1.90;;;;;;;14.41;100.00;99126.88;5092757;28;20051;-46
2023/11/15 00:46:36;;;;;;;8.82;6.28;;;;;;;14.23;100.00;99132.91;5092620;28;20110;-46
2023/11/15 00:49:05;;;;;;;5.15;1.58;;;;;;;13.90;100.00;99141.78;5092647;28;20028;-46
2023/11/15 00:51:30;;;;;;;15.30;13.90;;;;;;;13.47;100.00;99131.81;5092441;28;20111;-46
2023/11/15 00:53:56;;;;;;;11.27;8.52;;;;;;;13.15;100.00;99140.38;5092585;28;20069;-46
2023/11/15 00:56:22;;;;;;;29.40;26.58;;;;;;;12.91;100.00;99147.09;5091163;28;20077;-46
2023/11/15 00:58:48;;;;;;;11.80;9.85;;;;;;;12.70;100.00;99142.88;5092446;28;20031;-46
2023/11/15 01:01:14;;;;;;;8.02;4.53;;;;;;;12.48;100.00;99144.06;5092384;28;20023;-46
2023/11/15 01:03:45;;;;;;;36.53;33.08;;;;;;;12.32;100.00;99148.69;5091211;28;20024;-46
2023/11/15 01:06:13;;;;;;;48.63;43.42;;;;;;;12.28;100.00;99158.00;5092308;28;20035;-46
2023/11/15 01:08:40;;;;;;;49.50;44.45;;;;;;;12.06;100.00;99162.59;5092769;28;20117;-46
2023/11/15 01:11:06;;;;;;;156.13;141.30;;;;;;;11.82;100.00;99160.47;5092152;28;20567;-46
2023/11/15 01:13:32;;;;;;;88.30;80.00;;;;;;;12.09;100.00;99156.13;5092252;28;20024;-49
2023/11/15 01:15:59;;;;;;;76.55;69.13;;;;;;;12.94;100.00;99151.16;5092164;28;20073;-48
2023/11/15 01:18:26;;;;;;;16.13;13.70;;;;;;;13.19;100.00;99152.13;5092154;28;20016;-48
2023/11/15 01:20:52;;;;;;;8.13;5.95;;;;;;;13.59;100.00;99156.53;5090837;28;20020;-49
2023/11/15 01:23:19;;;;;;;13.23;5.18;;;;;;;13.36;100.00;99151.72;5092103;28;20078;-49
2023/11/15 01:25:44;;;;;;;85.90;77.45;;;;;;;12.87;100.00;99158.25;5091844;28;20431;-50
2023/11/15 01:28:11;;;;;;;20.10;17.35;;;;;;;12.49;100.00;99158.84;5090837;28;20040;-50
2023/11/15 01:30:36;;;;;;;14.90;8.77;;;;;;;12.15;100.00;99161.44;5092069;28;20070;-49
2023/11/15 01:33:03;;;;;;;7.80;4.13;;;;;;;11.88;100.00;99165.75;5091904;28;20023;-49
2023/11/15 01:35:28;;;;;;;11.48;4.22;;;;;;;11.69;100.00;99175.19;5090661;28;20031;-48
2023/11/15 01:37:54;;;;;;;10.10;2.50;;;;;;;11.55;100.00;99173.47;5091971;28;20020;-49
2023/11/15 01:40:21;;;;;;;10.23;3.58;;;;;;;11.39;100.00;99178.06;5091889;28;20059;-48
2023/11/15 01:42:50;;;;;;;5.85;2.60;;;;;;;11.32;100.00;99179.81;5090511;28;20501;-48
2023/11/15 01:45:16;;;;;;;9.55;1.83;;;;;;;11.30;100.00;99181.03;5091878;28;20340;-48
2023/11/15 01:47:43;;;;;;;12.40;4.30;;;;;;;11.30;100.00;99192.34;5091879;28;20028;-48
2023/11/15 01:50:13;;;;;;;10.30;2.25;;;;;;;11.24;100.00;99187.06;5090499;28;20027;-48
2023/11/15 01:52:46;;;;;;;5.90;1.80;;;;;;;11.07;100.00;99178.66;5091746;28;20455;-48
2023/11/15 01:55:19;;;;;;;6.07;1.75;;;;;;;10.93;100.00;99181.19;5091971;28;20079;-48
2023/11/15 01:57:46;;;;;;;6.32;1.42;;;;;;;10.83;100.00;99183.31;5091826;28;20119;-48
2023/11/15 02:00:14;;;;;;;5.47;1.60;;;;;;;10.74;100.00;99185.25;5090375;28;20031;-49
2023/11/15 02:02:41;;;;;;;5.88;1.75;;;;;;;10.61;100.00;99179.91;5091648;28;20031;-49
2023/11/15 02:05:09;;;;;;;7.70;4.88;;;;;;;10.52;100.00;99186.28;5091671;28;20020;-48
2023/11/15 02:07:39;;;;;;;8.20;4.32;;;;;;;10.46;100.00;99200.13;5091618;28;20059;-49
2023/11/15 02:10:07;;;;;;;11.55;3.75;;;;;;;10.45;100.00;99196.72;5091613;28;20024;-49
2023/11/15 02:12:33;;;;;;;8.20;5.53;;;;;;;10.64;100.00;99191.84;5090282;28;20413;-48
2023/11/15 02:14:59;;;;;;;11.02;3.38;;;;;;;11.11;100.00;99196.47;5091638;28;20099;-49
2023/11/15 02:17:26;;;;;;;12.25;2.33;;;;;;;12.12;100.00;99190.75;5091596;28;20035;-49
2023/11/15 02:19:52;;;;;;;14.75;6.75;;;;;;;12.19;100.00;99190.75;5090216;28;20028;-49
2023/11/15 02:22:18;;;;;;;12.77;2.20;;;;;;;12.07;100.00;99195.78;5093437;28;20130;-48
2023/11/15 02:24:45;;;;;;;7.30;2.10;;;;;;;11.78;100.00;99210.00;5095467;28;20031;-48
2023/11/15 02:27:12;;;;;;;7.55;4.30;;;;;;;11.49;100.00;99213.69;5095149;28;20399;-48
2023/11/15 02:29:39;;;;;;;6.53;1.88;;;;;;;11.25;100.00;99218.41;5095376;28;20024;-48
2023/11/15 02:32:06;;;;;;;14.80;3.10;;;;;;;10.98;100.00;99207.66;5095130;28;20027;-49
2023/11/15 02:34:32;;;;;;;4.53;2.20;;;;;;;10.76;100.00;99213.94;5095271;28;20161;-48
2023/11/15 02:36:58;;;;;;;9.80;2.85;;;;;;;10.53;100.00;99214.97;5093887;28;20024;-48
2023/11/15 02:39:24;;;;;;;11.23;7.40;;;;;;;10.36;100.00;99214.38;5095204;28;20020;-49
2023/11/15 02:41:50;;;;;;;12.57;7.18;;;;;;;10.15;100.00;99223.00;5093823;28;20060;-49
2023/11/15 02:44:16;;;;;;;5.68;3.22;;;;;;;10.02;100.00;99211.53;5093742;28;20028;-49
2023/11/15 02:46:42;;;;;;;10.60;5.95;;;;;;;10.16;100.00;99208.91;5093724;28;20020;-48
2023/11/15 02:49:08;;;;;;;6.70;2.70;;;;;;;10.37;100.00;99200.25;5094962;28;20107;-49
2023/11/15 02:51:34;;;;;;;8.80;3.33;;;;;;;10.37;100.00;99202.88;5094833;28;20020;-48
2023/11/15 02:54:03;;;;;;;7.28;3.10;;;;;;;10.24;100.00;99194.03;5094815;28;20031;-49
2023/11/15 02:56:30;;;;;;;9.85;3.17;;;;;;;10.02;100.00;99201.88;5094779;28;20012;-48
2023/11/15 02:58:56;;;;;;;7.50;3.08;;;;;;;10.13;100.00;99214.50;5094747;28;20020;-48
2023/11/15 03:01:22;;;;;;;14.60;8.93;;;;;;;10.29;100.00;99202.16;5094788;28;20631;-48
2023/11/15 03:03:48;;;;;;;10.18;2.28;;;;;;;10.18;100.00;99204.28;5094721;28;20107;-48
2023/11/15 03:06:14;;;;;;;5.68;3.17;;;;;;;9.94;100.00;99205.41;5093311;28;20027;-49
2023/11/15 03:08:39;;;;;;;6.88;2.55;;;;;;;9.75;100.00;99204.16;5094629;28;20023;-49
2023/11/15 03:11:06;;;;;;;9.40;4.05;;;;;;;9.60;100.00;99200.75;5094448;28;20032;-48
2023/11/15 03:13:32;;;;;;;7.57;4.13;;;;;;;9.56;100.00;99199.47;5094484;28;20050;-48
2023/11/15 03:15:58;;;;;;;7.68;3.38;;;;;;;9.55;100.00;99197.84;5093113;28;20062;-49
2023/11/15 03:18:24;;;;;;;11.63;3.35;;;;;;;9.54;100.00;99199.66;5094396;28;20032;-49
2023/11/15 03:20:50;;;;;;;14.25;8.25;;;;;;;9.49;100.00;99204.59;5093351;28;20031;-48
2023/11/15 03:23:16;;;;;;;11.13;4.35;;;;;;;9.44;100.00;99198.28;5094399;28;20027;-48
2023/11/15 03:25:42;;;;;;;10.95;3.50;;;;;;;9.34;100.00;99206.41;5094062;28;20074;-51
2023/11/15 03:28:08;;;;;;;16.65;11.02;;;;;;;9.30;100.00;99195.47;5076078;28;20035;-48
2023/11/15 03:30:34;;;;;;;8.07;4.35;;;;;;;9.96;100.00;99205.19;5094107;28;20103;-49
2023/11/15 03:33:00;;;;;;;26.10;23.70;;;;;;;10.72;100.00;99205.63;5091561;28;20024;-48
2023/11/15 03:35:26;;;;;;;13.13;3.45;;;;;;;11.33;100.00;99202.50;5092776;28;20482;-48
2023/11/15 03:37:52;;;;;;;16.75;14.98;;;;;;;11.69;100.00;99205.91;5094033;28;20111;-49
2023/11/15 03:40:19;;;;;;;10.20;3.25;;;;;;;11.71;100.00;99199.47;5092777;28;20027;-49
2023/11/15 03:42:46;;;;;;;9.35;1.90;;;;;;;11.26;100.00;99193.75;5093941;28;20027;-49
2023/11/15 03:45:12;;;;;;;5.80;2.80;;;;;;;10.84;100.00;99190.19;5092692;28;20074;-49
2023/11/15 03:47:40;;;;;;;12.73;9.93;;;;;;;10.66;100.00;99201.13;5094144;28;20056;-49
2023/11/15 03:50:06;;;;;;;7.32;3.63;;;;;;;10.31;100.00;99205.44;5093706;28;20024;-49
2023/11/15 03:52:32;;;;;;;7.57;3.13;;;;;;;10.04;100.00;99213.00;5093709;28;20029;-48
2023/11/15 03:54:58;;;;;;;48.83;44.45;;;;;;;9.90;100.00;99211.19;5094034;28;20035;-48
2023/11/15 03:57:26;;;;;;;6.10;2.58;;;;;;;10.70;100.00;99214.69;5093644;28;20021;-49
2023/11/15 03:59:53;;;;;;;7.30;1.48;;;;;;;11.25;100.00;99207.91;5093511;28;20035;-48
2023/11/15 04:02:19;;;;;;;41.00;36.65;;;;;;;11.09;100.00;99205.56;5093563;28;20024;-48
2023/11/15 04:04:45;;;;;;;15.70;5.93;;;;;;;10.92;100.00;99210.25;5093526;28;20525;-49
2023/11/15 04:07:11;;;;;;;10.88;3.05;;;;;;;10.35;100.00;99211.94;5093379;28;20482;-49
2023/11/15 04:09:37;;;;;;;4.75;2.30;;;;;;;10.04;100.00;99210.38;5093467;28;20021;-49
2023/11/15 04:12:03;;;;;;;8.95;2.50;;;;;;;9.71;100.00;99210.75;5093255;28;20028;-49
2023/11/15 04:14:28;;;;;;;9.10;3.20;;;;;;;9.57;100.00;99214.19;5093591;28;20020;-48
2023/11/15 04:16:54;;;;;;;9.45;6.00;;;;;;;9.77;100.00;99209.22;5093233;28;20421;-49
2023/11/15 04:19:21;;;;;;;13.82;3.67;;;;;;;10.17;100.00;99222.81;5091946;28;20024;-49
2023/11/15 04:21:48;;;;;;;6.25;2.10;;;;;;;10.34;100.00;99226.03;5093178;28;20024;-48
2023/11/15 04:24:14;;;;;;;10.60;2.78;;;;;;;10.39;100.00;99236.81;5091837;28;20020;-49
2023/11/15 04:26:40;;;;;;;11.70;2.40;;;;;;;10.27;100.00;99231.19;5091540;28;20258;-49
2023/11/15 04:29:06;;;;;;;8.20;3.67;;;;;;;10.53;100.00;99227.28;5093060;28;20401;-49
2023/11/15 04:31:35;;;;;;;6.75;2.30;;;;;;;10.84;100.00;99223.50;5092941;28;20027;-49
2023/11/15 04:34:02;;;;;;;7.38;2.25;;;;;;;10.96;100.00;99225.44;5091596;28;20028;-48
2023/11/15 04:36:31;;;;;;;14.05;2.17;;;;;;;10.85;100.00;99241.72;5092936;28;20020;-49
2023/11/15 04:38:57;;;;;;;8.82;2.58;;;;;;;10.95;100.00;99233.53;5091682;28;20020;-48
2023/11/15 04:41:23;;;;;;;6.57;1.75;;;;;;;11.23;100.00;99246.69;5092803;28;20026;-48
2023/11/15 04:43:50;;;;;;;14.27;11.77;;;;;;;10.88;100.00;99237.91;5092488;28;20020;-48
2023/11/15 04:46:16;;;;;;;7.80;3.53;;;;;;;10.38;100.00;99243.03;5092763;28;20016;-48
2023/11/15 04:48:41;;;;;;;5.82;2.22;;;;;;;10.03;100.00;99252.50;5092724;28;20020;-48
2023/11/15 04:51:07;;;;;;;6.78;2.20;;;;;;;9.80;100.00;99256.03;5092454;28;20016;-49
2023/11/15 04:53:33;;;;;;;11.60;2.47;;;;;;;9.75;100.00;99256.56;5074416;28;20035;-48
2023/11/15 04:56:00;;;;;;;8.05;1.67;;;;;;;9.90;100.00;99261.00;5092431;28;20460;-48
2023/11/15 04:58:26;;;;;;;12.68;4.18;;;;;;;10.39;100.00;99265.69;5092455;28;20035;-48
2023/11/15 05:00:51;;;;;;;7.82;1.98;;;;;;;10.69;100.00;99271.66;5092516;28;20020;-48
2023/11/15 05:03:19;;;;;;;14.05;12.63;;;;;;;11.22;100.00;99262.63;5091140;28;20074;-48
2023/11/15 05:05:45;;;;;;;6.03;4.25;;;;;;;11.50;100.00;99266.06;5091408;28;20043;-49
2023/11/15 05:08:11;;;;;;;6.75;3.55;;;;;;;11.94;100.00;99269.41;5092381;28;20043;-48
2023/11/15 05:10:37;;;;;;;12.55;4.32;;;;;;;12.38;100.00;99265.53;5091055;28;20062;-48
2023/11/15 05:13:06;;;;;;;6.30;1.90;;;;;;;12.68;100.00;99262.59;5090901;28;20053;-48
2023/11/15 05:15:32;;;;;;;5.50;1.90;;;;;;;12.71;100.00;99267.44;5092191;28;20486;-49
2023/11/15 05:17:58;;;;;;;9.32;2.53;;;;;;;13.01;100.00;99275.00;5090858;28;20052;-48
2023/11/15 05:20:25;;;;;;;4.80;1.83;;;;;;;13.14;100.00;99272.38;5090884;28;20406;-49
2023/11/15 05:22:51;;;;;;;5.70;1.48;;;;;;;13.13;100.00;99270.75;5090821;28;20043;-49
2023/11/15 05:25:18;;;;;;;4.32;1.30;;;;;;;12.86;100.00;99272.53;5092109;28;20020;-48
2023/11/15 05:27:45;;;;;;;6.70;2.08;;;;;;;12.51;100.00;99281.34;5091910;28;20441;-48
2023/11/15 05:30:11;;;;;;;6.35;1.50;;;;;;;12.48;100.00;99281.78;5092079;28;20390;-48
2023/11/15 05:32:36;;;;;;;4.70;2.22;;;;;;;12.85;100.00;99287.53;5091940;28;20055;-48
2023/11/15 05:35:02;;;;;;;6.63;2.30;;;;;;;13.39;100.00;99289.22;5090696;28;20051;-48
2023/11/15 05:37:28;;;;;;;6.88;1.50;;;;;;;13.54;100.00;99289.03;5092015;28;20435;-48
2023/11/15 05:39:54;;;;;;;9.32;2.45;;;;;;;13.49;100.00;99288.00;5091896;28;20027;-48
2023/11/15 05:42:20;;;;;;;8.73;1.85;;;;;;;13.18;100.00;99284.13;5090597;28;20432;-48
2023/11/15 05:44:45;;;;;;;6.93;2.97;;;;;;;12.91;100.00;99283.28;5073858;28;20115;-48
2023/11/15 05:47:11;;;;;;;8.38;2.28;;;;;;;13.28;100.00;99292.44;5090545;28;20055;-48
2023/11/15 05:49:37;;;;;;;18.60;16.65;;;;;;;13.45;100.00;99295.50;5091872;28;20023;-48
2023/11/15 05:52:03;;;;;;;34.28;5.00;;;;;;;13.60;100.00;99284.72;5091931;28;20474;-48
2023/11/15 05:54:31;;;;;;;13.82;6.47;;;;;;;13.42;100.00;99298.56;5091797;28;20020;-48
2023/11/15 05:56:58;;;;;;;8.90;2.10;;;;;;;13.77;100.00;99288.56;5093166;28;20451;-48
2023/11/15 05:59:24;;;;;;;28.85;25.40;;;;;;;13.82;100.00;99297.69;5094647;28;20027;-48
2023/11/15 06:01:51;;;;;;;10.43;4.13;;;;;;;13.97;100.00;99296.44;5094613;28;20118;-49
2023/11/15 06:04:17;;;;;;;6.28;2.00;;;;;;;13.93;100.00;99294.44;5096079;28;20024;-49
2023/11/15 06:06:43;;;;;;;4.47;1.70;;;;;;;13.03;100.00;99313.28;5095808;28;20036;-48
2023/11/15 06:09:13;;;;;;;9.93;2.15;;;;;;;12.61;100.00;99317.84;5095742;28;20020;-49
2023/11/15 06:11:39;;;;;;;8.05;2.97;;;;;;;12.28;100.00;99323.81;5095658;28;20588;-49
2023/11/15 06:14:05;;;;;;;6.88;2.03;;;;;;;12.00;100.00;99321.25;5095645;28;20032;-48
2023/11/15 06:16:31;;;;;;;6.55;2.30;;;;;;;11.59;100.00;99322.75;5094335;28;20495;-49
2023/11/15 06:18:57;;;;;;;7.95;3.47;;;;;;;11.12;100.00;99320.75;5095529;28;20012;-49
2023/11/15 06:21:23;;;;;;;9.15;3.15;;;;;;;10.72;100.00;99321.13;5095526;28;20024;-49
2023/11/15 06:23:49;;;;;;;11.43;3.58;;;;;;;10.42;100.00;99315.16;5095487;28;20028;-49
2023/11/15 06:26:15;;;;;;;10.38;2.72;;;;;;;10.18;100.00;99306.56;5093881;28;20040;-49
2023/11/15 06:28:40;;;;;;;10.65;3.45;;;;;;;9.99;100.00;99307.13;5095494;28;20058;-49
2023/11/15 06:31:06;;;;;;;14.70;5.63;;;;;;;9.80;100.00;99304.03;5093995;28;20024;-48
2023/11/15 06:33:33;;;;;;;18.27;13.18;;;;;;;9.82;100.00;99311.72;5095292;28;20130;-48
2023/11/15 06:35:59;;;;;;;12.38;5.75;;;;;;;10.28;100.00;99316.78;5095220;28;20031;-49
2023/11/15 06:38:24;;;;;;;14.23;5.82;;;;;;;10.52;100.00;99322.72;5095488;28;20024;-48
2023/11/15 06:40:50;;;;;;;10.27;3.65;;;;;;;10.57;100.00;99330.88;5095112;28;20516;-49
2023/11/15 06:43:16;;;;;;;9.00;4.60;;;;;;;10.74;100.00;99332.28;5093815;28;20544;-49
2023/11/15 06:45:42;;;;;;;8.10;3.22;;;;;;;10.71;100.00;99327.41;5095060;28;20032;-49
2023/11/15 06:48:07;;;;;;;11.93;4.45;;;;;;;10.62;100.00;99338.19;5095030;28;20139;-49
2023/11/15 06:50:34;;;;;;;8.38;3.40;;;;;;;10.87;100.00;99336.88;5095246;28;20099;-49
2023/11/15 06:53:01;;;;;;;8.77;3.63;;;;;;;10.88;100.00;99340.31;5094886;28;20047;-49
2023/11/15 06:55:27;;;;;;;7.65;3.13;;;;;;;10.91;100.00;99348.63;5094934;28;20071;-48
2023/11/15 06:57:53;;;;;;;9.50;2.97;;;;;;;11.14;100.00;99353.69;5093568;28;20023;-48
2023/11/15 07:00:25;;;;;;;12.57;2.63;;;;;;;11.63;100.00;99351.28;5094868;28;20024;-49
2023/11/15 07:02:51;;;;;;;8.80;4.03;;;;;;;12.17;100.00;99355.94;5094825;28;20024;-49
2023/11/15 07:05:17;;;;;;;6.72;2.67;;;;;;;12.37;100.00;99358.66;5094823;28;20024;-49
2023/11/15 07:07:43;;;;;;;4.70;2.55;;;;;;;12.08;100.00;99351.84;5094493;28;20497;-49
2023/11/15 07:10:09;;;;;;;12.43;7.93;;;;;;;11.96;100.00;99351.56;5093350;28;20038;-48
2023/11/15 07:12:35;;;;;;;6.65;3.35;;;;;;;12.43;100.00;99351.81;5093275;28;20028;-48
2023/11/15 07:15:03;;;;;;;13.45;9.00;;;;;;;13.15;100.00;99347.78;5093173;28;20039;-48
2023/11/15 07:17:29;;;;;;;12.68;5.45;;;;;;;13.63;100.00;99352.09;5076458;28;20490;-48
2023/11/15 07:19:55;;;;;;;16.98;13.82;;;;;;;13.57;100.00;99345.81;5093046;28;20043;-49
2023/11/15 07:22:20;;;;;;;17.75;9.55;;;;;;;13.36;100.00;99352.91;5094398;28;20020;-48
2023/11/15 07:24:46;;;;;;;9.50;6.30;;;;;;;13.41;100.00;99354.94;5093041;28;20036;-48
2023/11/15 07:27:12;;;;;;;19.65;12.15;;;;;;;13.35;100.00;99367.09;5094077;28;20713;-48
2023/11/15 07:29:37;;;;;;;12.65;6.38;;;;;;;12.94;100.00;99354.84;5094522;28;20030;-48
2023/11/15 07:32:07;;;;;;;18.08;9.30;;;;;;;12.63;100.00;99368.50;5092800;28;20028;-49
2023/11/15 07:34:37;;;;;;;32.08;7.43;;;;;;;13.25;100.00;99376.38;5094171;28;20532;-48
2023/11/15 07:37:04;;;;;;;15.25;5.28;;;;;;;14.51;100.00;99363.09;5094352;28;20117;-49
2023/11/15 07:39:29;;;;;;;13.75;8.32;;;;;;;15.64;100.00;99364.25;5092731;28;20081;-49
2023/11/15 07:41:55;;;;;;;10.15;3.47;;;;;;;16.52;100.00;99349.13;5092716;28;20051;-46
2023/11/15 07:44:20;;;;;;;8.00;2.70;;;;;;;17.17;100.00;99353.81;5092653;28;20020;-47
2023/11/15 07:46:49;;;;;;;7.47;4.05;;;;;;;17.70;100.00;99368.06;5093885;28;20482;-47
2023/11/15 07:49:18;;;;;;;6.05;2.40;;;;;;;17.95;100.00;99363.38;5093874;28;20044;-46
2023/11/15 07:51:47;;;;;;;11.50;2.60;;;;;;;17.68;100.00;99376.25;5093709;28;20028;-46
2023/11/15 07:54:13;;;;;;;10.40;2.45;;;;;;;17.43;100.00;99371.16;5075695;28;20012;-46
2023/11/15 07:56:40;;;;;;;8.40;4.40;;;;;;;16.88;100.00;99384.59;5092445;28;20024;-46
2023/11/15 07:59:06;;;;;;;10.57;3.60;;;;;;;16.68;100.00;99390.94;5075596;28;20024;-46
2023/11/15 08:01:31;;;;;;;8.18;2.30;;;;;;;17.22;100.00;99379.66;5075430;28;20551;-46
2023/11/15 08:03:57;;;;;;;9.57;2.67;;;;;;;17.63;100.00;99380.66;5093568;28;20062;-46
2023/11/15 08:06:23;;;;;;;6.80;2.88;;;;;;;17.63;100.00;99380.66;5093485;28;20027;-46
2023/11/15 08:08:49;;;;;;;290.88;76.93;;;;;;;18.11;100.00;99385.78;5092198;28;20028;-46
2023/11/15 08:11:14;;;;;;;61.13;17.30;;;;;;;18.39;100.00;99394.88;5092291;28;20119;-46
2023/11/15 08:13:41;;;;;;;48.17;15.38;;;;;;;18.55;100.00;99395.97;5093398;28;20174;-46
2023/11/15 08:16:12;;;;;;;22.35;6.88;;;;;;;18.86;100.00;99394.78;5092313;28;20024;-47
2023/11/15 08:18:39;;;;;;;64.72;9.23;;;;;;;19.17;100.00;99400.66;5092629;28;20561;-47
2023/11/15 08:21:05;;;;;;;37.92;6.03;;;;;;;19.33;100.00;99396.41;5092014;28;20112;-46
2023/11/15 08:23:31;;;;;;;18.00;8.80;;;;;;;19.70;100.00;99402.09;5091839;28;20043;-47
2023/11/15 08:26:02;;;;;;;10.18;4.57;;;;;;;20.24;100.00;99414.06;5091462;28;20044;-48
2023/11/15 08:28:30;;;;;;;8.93;3.58;;;;;;;20.57;100.00;99407.84;5093025;28;20044;-47
2023/11/15 08:30:58;;;;;;;8.02;3.00;;;;;;;20.79;100.00;99418.53;5093016;28;20055;-47
2023/11/15 08:33:26;;;;;;;6.47;2.85;;;;;;;21.19;100.00;99419.22;5092971;28;20389;-47
2023/11/15 08:35:53;;;;;;;11.00;2.85;;;;;;;21.75;100.00;99417.06;5092944;28;20088;-46
2023/11/15 08:38:25;;;;;;;8.48;3.47;;;;;;;22.12;100.00;99413.59;5092911;28;20031;-47
2023/11/15 08:40:51;;;;;;;8.75;3.17;;;;;;;22.34;100.00;99422.28;5092901;28;20115;-47
2023/11/15 08:43:19;;;;;;;9.13;4.88;;;;;;;22.58;98.41;99413.84;5091521;28;20020;-47
2023/11/15 08:45:46;;;;;;;54.35;29.83;;;;;;;22.81;98.27;99417.16;5092734;28;20077;-47
2023/11/15 08:48:13;;;;;;;54.03;30.05;;;;;;;23.20;95.93;99422.06;5092678;28;20020;-46
2023/11/15 08:50:43;;;;;;;52.50;31.92;;;;;;;23.41;93.54;99436.31;5092604;28;20209;-47
2023/11/15 08:53:14;;;;;;;35.05;14.05;;;;;;;23.62;92.49;99435.25;5092572;28;20119;-47
2023/11/15 08:55:44;;;;;;;82.85;36.53;;;;;;;23.81;92.76;99440.13;5092653;28;20032;-47
2023/11/15 08:58:16;;;;;;;27.77;8.43;;;;;;;24.00;92.23;99433.09;5092522;28;20051;-47
2023/11/15 09:00:44;;;;;;;16.02;4.35;;;;;;;24.36;90.85;99441.06;5092757;28;20031;-47
2023/11/15 09:03:10;;;;;;;14.77;3.60;;;;;;;24.58;87.71;99450.72;5091113;28;20081;-47
2023/11/15 09:05:43;;;;;;;37.80;27.10;;;;;;;24.80;86.40;99451.16;5091081;28;20034;-47
2023/11/15 09:08:10;;;;;;;33.10;29.58;;;;;;;25.00;86.27;99449.44;5092715;28;20115;-47
2023/11/15 09:10:36;;;;;;;28.33;23.23;;;;;;;25.21;85.76;99450.13;5092314;28;20024;-47
2023/11/15 09:13:03;;;;;;;17.33;14.43;;;;;;;25.47;84.65;99448.09;5074106;28;20699;-47
2023/11/15 09:15:31;;;;;;;13.02;6.18;;;;;;;25.76;82.70;99444.66;5092467;28;20016;-47
2023/11/15 09:17:57;;;;;;;6.65;3.10;;;;;;;25.85;81.65;99448.34;5092203;28;20027;-47
2023/11/15 09:20:29;;;;;;;13.23;3.67;;;;;;;26.20;83.10;99451.78;5092173;28;20032;-47
2023/11/15 09:22:57;;;;;;;9.38;3.10;;;;;;;26.42;80.55;99451.28;5090905;28;20130;-47
2023/11/15 09:25:26;;;;;;;8.52;3.13;;;;;;;26.84;79.31;99471.28;5090803;28;20505;-45
2023/11/15 09:27:54;;;;;;;37.15;17.38;;;;;;;27.21;77.83;99467.03;5091883;28;20065;-45
2023/11/15 09:30:21;;;;;;;26.98;5.57;;;;;;;27.48;76.33;99466.38;5091161;28;20032;-45
2023/11/15 09:32:49;;;;;;;15.93;4.65;;;;;;;27.37;72.54;99454.97;5090586;28;20051;-46
2023/11/15 09:35:17;;;;;;;11.38;3.80;;;;;;;27.37;70.74;99460.38;5091985;28;20486;-45
2023/11/15 09:37:43;;;;;;;18.60;6.95;;;;;;;27.55;70.56;99461.44;5073810;28;20043;-46
2023/11/15 09:40:13;;;;;;;8.05;4.88;;;;;;;27.72;66.05;99458.19;5090598;28;20086;-45
2023/11/15 09:42:44;;;;;;;36.03;11.65;;;;;;;27.55;69.31;99466.00;5091823;28;20077;-45
2023/11/15 09:45:19;;;;;;;38.67;32.20;;;;;;;27.66;66.61;99480.94;5091810;28;20486;-45
2023/11/15 09:47:47;;;;;;;17.98;12.38;;;;;;;27.93;66.03;99485.66;5090562;28;20038;-45
2023/11/15 09:50:23;;;;;;;28.48;11.70;;;;;;;27.61;63.59;99484.53;5091732;28;20466;-45
2023/11/15 09:52:51;;;;;;;16.88;11.48;;;;;;;26.84;68.14;99488.28;5090451;28;20036;-45
2023/11/15 09:55:18;;;;;;;16.92;9.23;;;;;;;25.98;70.71;99495.31;5090497;28;20135;-45
2023/11/15 09:57:44;;;;;;;9.68;2.83;;;;;;;25.14;63.55;99493.44;5090461;28;20032;-45
2023/11/15 10:00:10;;;;;;;11.30;2.97;;;;;;;23.87;63.74;99493.44;5092021;28;20444;-47
2023/11/15 10:02:36;;;;;;;8.70;3.40;;;;;;;23.56;69.12;99495.25;5090400;28;20123;-47
2023/11/15 10:05:19;;;;;;;12.45;4.20;;;;;;;23.03;69.87;99495.41;5091733;28;20020;-47
2023/11/15 10:07:52;;;;;;;10.48;3.40;;;;;;;22.62;71.06;99494.41;5092005;28;20430;-47
2023/11/15 10:10:22;;;;;;;12.73;4.20;;;;;;;22.83;72.65;99490.75;5091659;28;20474;-47
2023/11/15 10:12:51;;;;;;;11.32;2.80;;;;;;;23.19;70.34;99488.22;5090357;28;20020;-47
2023/11/15 10:15:20;;;;;;;11.75;3.33;;;;;;;23.41;72.09;99485.34;5090309;28;20020;-47
2023/11/15 10:17:48;;;;;;;13.55;3.50;;;;;;;24.77;70.24;99480.44;5091547;28;20019;-47
2023/11/15 10:20:20;;;;;;;10.68;2.60;;;;;;;25.51;65.58;99478.72;5091526;28;20020;-47
2023/11/15 10:22:47;;;;;;;13.25;3.13;;;;;;;26.26;64.84;99480.28;5091470;28;20103;-47
2023/11/15 10:25:14;;;;;;;15.38;3.55;;;;;;;26.56;62.16;99478.31;5091472;28;20039;-47
2023/11/15 10:27:41;;;;;;;16.05;3.13;;;;;;;26.66;59.04;99478.25;5091378;28;20052;-47
2023/11/15 10:30:16;;;;;;;14.27;4.03;;;;;;;26.81;61.61;99475.38;5091406;28;20046;-45
2023/11/15 10:32:45;;;;;;;8.80;2.45;;;;;;;26.70;57.05;99458.53;5091334;28;20501;-45
2023/11/15 10:35:27;;;;;;;12.85;3.35;;;;;;;26.16;58.19;99461.53;5091411;28;20073;-45
2023/11/15 10:37:53;;;;;;;8.63;2.72;;;;;;;25.97;63.39;99456.06;5091439;28;20063;-45
2023/11/15 10:40:25;;;;;;;11.88;4.53;;;;;;;25.76;63.38;99464.28;5090140;28;20024;-46
2023/11/15 10:42:52;;;;;;;20.88;9.90;;;;;;;25.61;62.54;99465.19;5093933;28;20032;-46
2023/11/15 10:45:23;;;;;;;11.07;3.47;;;;;;;25.93;60.86;99463.88;5095106;28;20093;-46
2023/11/15 10:48:12;;;;;;;22.63;6.22;;;;;;;26.82;60.31;99473.47;5093901;28;20031;-45
2023/11/15 10:50:44;;;;;;;11.07;5.43;;;;;;;27.35;57.67;99464.44;5093659;28;20097;-46
2023/11/15 10:53:10;;;;;;;11.63;3.50;;;;;;;26.17;59.59;99473.91;5094938;28;20081;-45
2023/11/15 10:55:40;;;;;;;10.93;2.45;;;;;;;24.51;58.72;99464.44;5094885;28;20020;-45
2023/11/15 10:58:11;;;;;;;23.02;11.93;;;;;;;23.18;61.97;99475.94;5076681;28;20046;-47
2023/11/15 11:00:40;;;;;;;17.15;4.60;;;;;;;22.43;64.90;99473.41;5094896;28;20020;-47
2023/11/15 11:03:08;;;;;;;8.07;2.25;;;;;;;22.32;65.75;99477.13;5093471;28;20060;-47
2023/11/15 11:05:54;;;;;;;8.18;2.53;;;;;;;22.11;62.39;99466.25;5094977;28;20035;-47
2023/11/15 11:08:50;;;;;;;5.97;2.17;;;;;;;21.37;61.32;99466.13;5094695;28;20119;-47
2023/11/15 11:11:26;;;;;;;5.90;1.63;;;;;;;20.71;63.58;99475.00;5093396;28;20028;-47
2023/11/15 11:14:15;;;;;;;9.93;3.00;;;;;;;20.32;64.12;99465.13;5094844;28;20472;-47
2023/11/15 11:16:44;;;;;;;8.75;1.83;;;;;;;20.09;66.46;99467.97;5094463;28;20034;-46
2023/11/15 11:19:12;;;;;;;11.68;3.00;;;;;;;19.90;66.89;99468.22;5093152;28;20089;-47
2023/11/15 11:22:05;;;;;;;6.97;2.00;;;;;;;20.26;62.42;99467.94;5094398;28;20016;-47